createdAt,value
2022-10-19T00:00:20.897Z,13.44
2022-10-19T00:01:20.873Z,13.45
2022-10-19T00:02:20.955Z,13.48
2022-10-19T00:03:23.189Z,13.46
2022-10-19T00:04:20.790Z,13.46
2022-10-19T00:05:20.759Z,13.46
2022-10-19T00:06:20.736Z,13.49
2022-10-19T00:07:20.705Z,13.49
2022-10-19T00:08:20.761Z,13.44
2022-10-19T00:09:20.651Z,13.48
2022-10-19T00:10:20.621Z,13.45
2022-10-19T00:11:20.600Z,13.45
2022-10-19T00:12:20.570Z,13.44
2022-10-19T00:13:20.540Z,13.42
2022-10-19T00:14:20.514Z,13.41
2022-10-19T00:15:20.489Z,13.49
2022-10-19T00:16:20.459Z,13.48
2022-10-19T00:17:20.431Z,13.52
2022-10-19T00:18:20.407Z,13.49
2022-10-19T00:19:20.377Z,13.49
2022-10-19T00:20:20.350Z,13.46
2022-10-19T00:21:20.320Z,13.48
2022-10-19T00:22:20.292Z,13.42
2022-10-19T00:23:20.265Z,13.45
2022-10-19T00:24:20.261Z,13.49
2022-10-19T00:25:20.213Z,13.41
2022-10-19T00:26:20.185Z,13.42
2022-10-19T00:27:20.159Z,13.52
2022-10-19T00:28:20.128Z,13.45
2022-10-19T00:29:20.100Z,13.57
2022-10-19T00:30:20.073Z,13.51
2022-10-19T00:31:20.050Z,13.49
2022-10-19T00:32:20.024Z,13.52
2022-10-19T00:33:19.992Z,13.44
2022-10-19T00:34:19.965Z,13.45
2022-10-19T00:35:19.939Z,13.46
2022-10-19T00:36:19.913Z,13.46
2022-10-19T00:37:19.879Z,13.48
2022-10-19T00:38:19.855Z,13.54
2022-10-19T00:39:19.829Z,13.44
2022-10-19T00:40:19.821Z,13.33
2022-10-19T00:41:19.771Z,13.28
2022-10-19T00:42:19.747Z,13.23
2022-10-19T00:43:19.718Z,13.11
2022-10-19T00:44:19.688Z,13.11
2022-10-19T00:45:19.658Z,13.08
2022-10-19T00:46:19.637Z,13.00
2022-10-19T00:47:19.606Z,13.05
2022-10-19T00:48:19.580Z,12.92
2022-10-19T00:49:19.549Z,12.97
2022-10-19T00:50:19.520Z,12.93
2022-10-19T00:51:19.493Z,12.97
2022-10-19T00:52:19.468Z,12.97
2022-10-19T00:53:19.439Z,12.86
2022-10-19T00:54:19.409Z,12.87
2022-10-19T00:55:19.381Z,12.87
2022-10-19T00:56:19.376Z,12.82
2022-10-19T00:57:19.327Z,12.67
2022-10-19T00:58:19.300Z,12.68
2022-10-19T00:59:19.271Z,12.59
2022-10-19T01:00:19.244Z,12.56
2022-10-19T01:01:19.350Z,12.54
2022-10-19T01:02:19.189Z,12.46
2022-10-19T01:03:19.157Z,12.46
2022-10-19T01:04:19.128Z,12.39
2022-10-19T01:05:19.103Z,12.42
2022-10-19T01:06:19.070Z,12.39
2022-10-19T01:07:19.045Z,12.28
2022-10-19T01:08:19.017Z,12.35
2022-10-19T01:09:18.992Z,12.35
2022-10-19T01:10:18.958Z,12.24
2022-10-19T01:11:18.938Z,12.34
2022-10-19T01:12:18.927Z,12.32
2022-10-19T01:13:18.878Z,12.17
2022-10-19T01:14:18.846Z,12.20
2022-10-19T01:15:18.819Z,12.20
2022-10-19T01:16:18.790Z,12.20
2022-10-19T01:17:18.760Z,12.21
2022-10-19T01:18:18.733Z,12.19
2022-10-19T01:19:18.707Z,12.13
2022-10-19T01:20:18.680Z,12.19
2022-10-19T01:21:18.649Z,12.13
2022-10-19T01:22:18.621Z,12.20
2022-10-19T01:23:18.596Z,12.16
2022-10-19T01:24:18.565Z,12.16
2022-10-19T01:25:18.536Z,12.19
2022-10-19T01:26:18.509Z,12.20
2022-10-19T01:27:18.484Z,12.12
2022-10-19T01:28:18.480Z,12.16
2022-10-19T01:29:18.427Z,12.16
2022-10-19T01:30:18.400Z,12.13
2022-10-19T01:31:18.370Z,12.19
2022-10-19T01:32:18.342Z,12.13
2022-10-19T01:33:18.316Z,12.10
2022-10-19T01:34:18.289Z,12.12
2022-10-19T01:35:18.255Z,12.17
2022-10-19T01:36:18.230Z,12.12
2022-10-19T01:37:18.203Z,12.17
2022-10-19T01:38:18.177Z,12.10
2022-10-19T01:39:18.145Z,12.17
2022-10-19T01:40:18.120Z,12.04
2022-10-19T01:41:18.086Z,12.04
2022-10-19T01:42:18.062Z,12.12
2022-10-19T01:43:18.037Z,12.09
2022-10-19T01:44:18.033Z,12.16
2022-10-19T01:45:17.979Z,12.13
2022-10-19T01:46:17.950Z,12.17
2022-10-19T01:47:17.927Z,12.17
2022-10-19T01:48:17.893Z,12.16
2022-10-19T01:49:17.867Z,12.17
2022-10-19T01:50:17.837Z,12.17
2022-10-19T01:51:17.811Z,12.19
2022-10-19T01:52:17.785Z,12.14
2022-10-19T01:53:17.755Z,12.12
2022-10-19T01:54:17.723Z,12.14
2022-10-19T01:55:17.700Z,12.19
2022-10-19T01:56:17.668Z,12.13
2022-10-19T01:57:17.642Z,12.23
2022-10-19T01:58:17.612Z,12.20
2022-10-19T01:59:17.588Z,12.19
2022-10-19T02:00:17.582Z,12.20
2022-10-19T02:01:17.532Z,12.19
2022-10-19T02:02:17.504Z,12.17
2022-10-19T02:03:17.477Z,12.20
2022-10-19T02:04:17.445Z,12.21
2022-10-19T02:05:17.415Z,12.28
2022-10-19T02:06:17.394Z,12.28
2022-10-19T02:07:17.363Z,12.32
2022-10-19T02:08:17.332Z,12.28
2022-10-19T02:09:17.307Z,12.35
2022-10-19T02:10:17.294Z,12.31
2022-10-19T02:11:17.250Z,12.23
2022-10-19T02:12:17.224Z,12.28
2022-10-19T02:13:17.198Z,12.45
2022-10-19T02:14:17.169Z,12.45
2022-10-19T02:15:17.138Z,12.41
2022-10-19T02:16:17.135Z,12.47
2022-10-19T02:17:17.086Z,12.41
2022-10-19T02:18:17.057Z,12.42
2022-10-19T02:19:17.098Z,12.47
2022-10-19T02:20:17.003Z,12.50
2022-10-19T02:21:16.972Z,12.42
2022-10-19T02:22:16.941Z,12.45
2022-10-19T02:23:16.914Z,12.45
2022-10-19T02:24:16.890Z,12.39
2022-10-19T02:25:16.861Z,12.49
2022-10-19T02:26:16.830Z,12.46
2022-10-19T02:27:16.805Z,12.38
2022-10-19T02:28:16.839Z,12.39
2022-10-19T02:29:16.747Z,12.45
2022-10-19T02:30:16.718Z,12.39
2022-10-19T02:31:16.693Z,12.41
2022-10-19T02:32:16.684Z,12.47
2022-10-19T02:33:16.631Z,12.41
2022-10-19T02:34:16.605Z,12.42
2022-10-19T02:35:16.587Z,12.46
2022-10-19T02:36:16.553Z,12.49
2022-10-19T02:37:16.589Z,12.46
2022-10-19T02:38:16.498Z,12.42
2022-10-19T02:39:16.464Z,12.42
2022-10-19T02:40:16.439Z,12.47
2022-10-19T02:41:16.413Z,12.41
2022-10-19T02:42:16.383Z,12.50
2022-10-19T02:43:16.355Z,12.54
2022-10-19T02:44:16.330Z,12.53
2022-10-19T02:45:16.295Z,12.60
2022-10-19T02:46:16.273Z,12.53
2022-10-19T02:47:16.245Z,12.53
2022-10-19T02:48:16.241Z,12.54
2022-10-19T02:49:16.187Z,12.67
2022-10-19T02:50:16.162Z,12.53
2022-10-19T02:51:16.129Z,12.56
2022-10-19T02:52:16.105Z,12.54
2022-10-19T02:53:16.079Z,12.54
2022-10-19T02:54:16.045Z,12.56
2022-10-19T02:55:16.021Z,12.49
2022-10-19T02:56:15.989Z,12.57
2022-10-19T02:57:15.960Z,12.52
2022-10-19T02:58:15.939Z,12.41
2022-10-19T02:59:15.905Z,12.52
2022-10-19T03:00:15.877Z,12.57
2022-10-19T03:01:15.911Z,12.47
2022-10-19T03:02:15.825Z,12.42
2022-10-19T03:03:15.796Z,12.42
2022-10-19T03:04:15.788Z,12.57
2022-10-19T03:05:15.741Z,12.50
2022-10-19T03:06:15.712Z,12.50
2022-10-19T03:07:15.684Z,12.54
2022-10-19T03:08:15.656Z,12.53
2022-10-19T03:09:15.628Z,12.56
2022-10-19T03:10:15.595Z,12.50
2022-10-19T03:11:15.573Z,12.57
2022-10-19T03:12:15.545Z,12.46
2022-10-19T03:13:15.516Z,12.49
2022-10-19T03:14:15.485Z,12.57
2022-10-19T03:15:15.469Z,12.50
2022-10-19T03:16:15.432Z,12.42
2022-10-19T03:17:15.405Z,12.49
2022-10-19T03:18:15.372Z,12.49
2022-10-19T03:19:15.350Z,12.41
2022-10-19T03:20:15.343Z,12.49
2022-10-19T03:21:15.292Z,12.45
2022-10-19T03:22:15.262Z,12.41
2022-10-19T03:23:15.236Z,12.46
2022-10-19T03:24:15.209Z,12.46
2022-10-19T03:25:15.176Z,12.41
2022-10-19T03:26:15.152Z,12.42
2022-10-19T03:27:15.123Z,12.49
2022-10-19T03:28:15.097Z,12.41
2022-10-19T03:29:15.068Z,12.41
2022-10-19T03:30:15.039Z,12.41
2022-10-19T03:31:15.013Z,12.41
2022-10-19T03:32:14.985Z,12.41
2022-10-19T03:33:14.957Z,12.42
2022-10-19T03:34:14.928Z,12.32
2022-10-19T03:35:14.900Z,12.41
2022-10-19T03:36:14.891Z,12.45
2022-10-19T03:37:14.844Z,12.42
2022-10-19T03:38:14.815Z,12.45
2022-10-19T03:39:14.788Z,12.46
2022-10-19T03:40:14.759Z,12.35
2022-10-19T03:41:14.733Z,12.41
2022-10-19T03:42:14.704Z,12.45
2022-10-19T03:43:14.673Z,12.50
2022-10-19T03:44:14.649Z,12.42
2022-10-19T03:45:14.620Z,12.41
2022-10-19T03:46:14.592Z,12.28
2022-10-19T03:47:14.560Z,12.28
2022-10-19T03:48:14.534Z,12.35
2022-10-19T03:49:14.507Z,12.28
2022-10-19T03:50:14.476Z,12.32
2022-10-19T03:51:14.453Z,12.29
2022-10-19T03:52:14.451Z,12.32
2022-10-19T03:53:14.396Z,12.32
2022-10-19T03:54:14.364Z,12.31
2022-10-19T03:55:14.341Z,12.24
2022-10-19T03:56:14.310Z,12.29
2022-10-19T03:57:14.283Z,12.23
2022-10-19T03:58:14.256Z,12.32
2022-10-19T03:59:14.224Z,12.24
2022-10-19T04:00:14.217Z,12.28
2022-10-19T04:01:14.298Z,12.29
2022-10-19T04:02:14.142Z,12.29
2022-10-19T04:03:14.116Z,12.24
2022-10-19T04:04:14.099Z,12.28
2022-10-19T04:05:14.062Z,12.31
2022-10-19T04:06:16.897Z,12.23
2022-10-19T04:07:14.000Z,12.16
2022-10-19T04:08:13.998Z,12.20
2022-10-19T04:09:13.944Z,12.31
2022-10-19T04:10:13.919Z,12.20
2022-10-19T04:11:13.894Z,12.17
2022-10-19T04:12:13.862Z,12.20
2022-10-19T04:13:13.836Z,12.17
2022-10-19T04:14:19.210Z,12.20
2022-10-19T04:15:13.777Z,12.21
2022-10-19T04:16:13.752Z,12.24
2022-10-19T04:17:13.724Z,12.32
2022-10-19T04:18:13.697Z,12.32
2022-10-19T04:19:13.669Z,12.34
2022-10-19T04:20:13.642Z,12.32
2022-10-19T04:21:13.615Z,12.28
2022-10-19T04:22:13.583Z,12.34
2022-10-19T04:23:13.609Z,12.28
2022-10-19T04:24:13.549Z,12.31
2022-10-19T04:25:13.499Z,12.29
2022-10-19T04:26:13.470Z,12.31
2022-10-19T04:27:13.446Z,12.27
2022-10-19T04:28:13.414Z,12.35
2022-10-19T04:29:13.429Z,12.28
2022-10-19T04:30:13.360Z,12.29
2022-10-19T04:31:13.330Z,12.31
2022-10-19T04:32:13.305Z,12.29
2022-10-19T04:33:13.276Z,12.35
2022-10-19T04:34:13.248Z,12.28
2022-10-19T04:35:13.217Z,12.29
2022-10-19T04:36:13.188Z,12.29
2022-10-19T04:37:13.161Z,12.41
2022-10-19T04:38:13.132Z,12.41
2022-10-19T04:39:13.104Z,12.31
2022-10-19T04:40:14.970Z,12.38
2022-10-19T04:41:13.049Z,12.37
2022-10-19T04:42:13.023Z,12.39
2022-10-19T04:43:12.995Z,12.31
2022-10-19T04:44:13.060Z,12.41
2022-10-19T04:45:12.934Z,12.34
2022-10-19T04:46:12.912Z,12.31
2022-10-19T04:47:12.880Z,12.31
2022-10-19T04:48:15.086Z,12.34
2022-10-19T04:49:16.407Z,12.34
2022-10-19T04:50:12.798Z,12.32
2022-10-19T04:51:12.768Z,12.35
2022-10-19T04:52:12.737Z,12.31
2022-10-19T04:53:12.873Z,12.32
2022-10-19T04:54:12.679Z,12.35
2022-10-19T04:55:12.656Z,12.35
2022-10-19T04:56:12.646Z,12.28
2022-10-19T04:57:12.599Z,12.29
2022-10-19T04:58:12.572Z,12.28
2022-10-19T04:59:12.550Z,12.31
2022-10-19T05:00:12.516Z,12.32
2022-10-19T05:01:12.562Z,12.41
2022-10-19T05:02:12.456Z,12.28
2022-10-19T05:03:12.432Z,12.37
2022-10-19T05:04:12.404Z,12.41
2022-10-19T05:05:12.377Z,12.42
2022-10-19T05:06:12.349Z,12.37
2022-10-19T05:07:12.319Z,12.39
2022-10-19T05:08:12.295Z,12.41
2022-10-19T05:09:12.262Z,12.47
2022-10-19T05:10:12.234Z,12.31
2022-10-19T05:11:12.202Z,12.47
2022-10-19T05:12:12.197Z,12.39
2022-10-19T05:13:12.149Z,12.39
2022-10-19T05:14:12.121Z,12.45
2022-10-19T05:15:12.093Z,12.42
2022-10-19T05:16:12.064Z,12.45
2022-10-19T05:17:12.036Z,12.47
2022-10-19T05:18:12.006Z,12.47
2022-10-19T05:19:11.979Z,12.46
2022-10-19T05:20:11.949Z,12.45
2022-10-19T05:21:11.923Z,12.52
2022-10-19T05:22:11.892Z,12.42
2022-10-19T05:23:11.865Z,12.45
2022-10-19T05:24:11.841Z,12.47
2022-10-19T05:25:11.811Z,12.42
2022-10-19T05:26:11.784Z,12.45
2022-10-19T05:27:11.750Z,12.41
2022-10-19T05:28:11.750Z,12.45
2022-10-19T05:29:11.740Z,12.42
2022-10-19T05:30:11.671Z,12.42
2022-10-19T05:31:11.652Z,12.37
2022-10-19T05:32:11.615Z,12.46
2022-10-19T05:33:11.586Z,12.46
2022-10-19T05:34:11.560Z,12.47
2022-10-19T05:35:11.531Z,12.42
2022-10-19T05:36:11.502Z,12.38
2022-10-19T05:37:11.472Z,12.45
2022-10-19T05:38:11.441Z,12.46
2022-10-19T05:39:11.421Z,12.49
2022-10-19T05:40:11.389Z,12.42
2022-10-19T05:41:11.356Z,12.39
2022-10-19T05:42:11.331Z,12.50
2022-10-19T05:43:11.305Z,12.47
2022-10-19T05:44:11.300Z,12.47
2022-10-19T05:45:11.249Z,12.39
2022-10-19T05:46:11.220Z,12.47
2022-10-19T05:47:11.187Z,12.42
2022-10-19T05:48:11.163Z,12.45
2022-10-19T05:49:11.135Z,12.38
2022-10-19T05:50:11.103Z,12.39
2022-10-19T05:51:11.078Z,12.42
2022-10-19T05:52:11.051Z,12.46
2022-10-19T05:53:11.025Z,12.39
2022-10-19T05:54:10.990Z,12.38
2022-10-19T05:55:10.962Z,12.32
2022-10-19T05:56:10.940Z,12.41
2022-10-19T05:57:10.905Z,12.28
2022-10-19T05:58:11.078Z,12.32
2022-10-19T05:59:10.853Z,12.28
2022-10-19T06:00:10.848Z,12.27
2022-10-19T06:01:10.792Z,12.34
2022-10-19T06:02:10.826Z,12.38
2022-10-19T06:03:10.738Z,12.28
2022-10-19T06:04:10.794Z,12.39
2022-10-19T06:05:10.681Z,12.31
2022-10-19T06:06:10.656Z,12.31
2022-10-19T06:07:10.629Z,12.38
2022-10-19T06:08:10.600Z,12.27
2022-10-19T06:09:10.573Z,12.39
2022-10-19T06:10:10.547Z,12.42
2022-10-19T06:11:10.519Z,12.41
2022-10-19T06:12:10.491Z,12.32
2022-10-19T06:13:10.462Z,12.41
2022-10-19T06:14:10.465Z,12.34
2022-10-19T06:15:10.406Z,12.39
2022-10-19T06:16:10.400Z,12.39
2022-10-19T06:17:10.350Z,12.42
2022-10-19T06:18:10.321Z,12.45
2022-10-19T06:19:10.291Z,12.39
2022-10-19T06:20:10.260Z,12.39
2022-10-19T06:21:10.235Z,12.47
2022-10-19T06:22:10.210Z,12.42
2022-10-19T06:23:10.183Z,12.45
2022-10-19T06:24:10.155Z,12.45
2022-10-19T06:25:10.129Z,12.47
2022-10-19T06:26:10.095Z,12.49
2022-10-19T06:27:10.147Z,12.56
2022-10-19T06:28:10.041Z,12.54
2022-10-19T06:29:10.009Z,12.57
2022-10-19T06:30:09.988Z,12.57
2022-10-19T06:31:10.030Z,12.67
2022-10-19T06:32:09.946Z,12.64
2022-10-19T06:33:09.904Z,12.64
2022-10-19T06:34:09.909Z,12.71
2022-10-19T06:35:09.848Z,12.71
2022-10-19T06:36:09.818Z,12.74
2022-10-19T06:37:09.791Z,12.75
2022-10-19T06:38:09.763Z,12.77
2022-10-19T06:39:09.736Z,12.83
2022-10-19T06:40:09.787Z,12.83
2022-10-19T06:41:09.681Z,12.85
2022-10-19T06:42:09.663Z,12.85
2022-10-19T06:43:09.626Z,12.86
2022-10-19T06:44:09.597Z,12.83
2022-10-19T06:45:09.570Z,12.96
2022-10-19T06:46:09.542Z,13.00
2022-10-19T06:47:09.517Z,12.93
2022-10-19T06:48:09.511Z,13.10
2022-10-19T06:49:09.459Z,13.19
2022-10-19T06:50:09.432Z,13.29
2022-10-19T06:51:09.400Z,13.41
2022-10-19T06:52:09.377Z,13.39
2022-10-19T06:53:09.348Z,13.51
2022-10-19T06:54:09.319Z,13.62
2022-10-19T06:55:09.294Z,13.57
2022-10-19T06:56:09.265Z,13.59
2022-10-19T06:57:09.238Z,13.54
2022-10-19T06:58:09.206Z,13.62
2022-10-19T06:59:09.185Z,13.67
2022-10-19T07:00:09.159Z,13.67
2022-10-19T07:01:09.188Z,13.71
2022-10-19T07:02:09.103Z,13.64
2022-10-19T07:03:09.082Z,13.55
2022-10-19T07:04:09.082Z,13.59
2022-10-19T07:05:09.018Z,13.52
2022-10-19T07:06:08.992Z,13.45
2022-10-19T07:07:08.967Z,13.38
2022-10-19T07:08:09.032Z,13.38
2022-10-19T07:09:08.912Z,13.45
2022-10-19T07:10:08.888Z,13.71
2022-10-19T07:11:08.858Z,13.89
2022-10-19T07:12:08.829Z,14.12
2022-10-19T07:14:08.776Z,14.54
2022-10-19T07:15:08.759Z,14.60
2022-10-19T07:16:08.720Z,14.68
2022-10-19T07:17:08.693Z,14.73
2022-10-19T07:18:08.666Z,14.65
2022-10-19T07:19:08.635Z,14.57
2022-10-19T07:20:08.634Z,14.64
2022-10-19T07:21:08.590Z,14.50
2022-10-19T07:22:08.569Z,14.75
2022-10-19T07:23:08.534Z,14.86
2022-10-19T07:24:08.503Z,15.07
2022-10-19T07:25:08.478Z,15.20
2022-10-19T07:26:08.452Z,15.47
2022-10-19T07:27:08.425Z,15.67
2022-10-19T07:28:08.403Z,15.87
2022-10-19T07:29:08.372Z,16.21
2022-10-19T07:30:08.346Z,16.76
2022-10-19T07:31:08.318Z,17.33
2022-10-19T07:32:08.292Z,17.86
2022-10-19T07:33:08.318Z,18.33
2022-10-19T07:34:08.242Z,18.44
2022-10-19T07:35:08.217Z,18.51
2022-10-19T07:36:08.210Z,18.10
2022-10-19T07:37:08.165Z,17.86
2022-10-19T07:38:08.139Z,17.56
2022-10-19T07:39:08.115Z,17.56
2022-10-19T07:40:08.093Z,17.43
2022-10-19T07:41:08.065Z,17.40
2022-10-19T07:42:08.122Z,17.59
2022-10-19T07:43:08.015Z,17.56
2022-10-19T07:44:09.912Z,17.68
2022-10-19T07:45:07.966Z,17.84
2022-10-19T07:46:07.942Z,17.97
2022-10-19T07:47:07.918Z,18.10
2022-10-19T07:48:07.894Z,18.41
2022-10-19T07:49:07.867Z,18.65
2022-10-19T07:50:07.859Z,18.76
2022-10-19T07:51:07.818Z,18.91
2022-10-19T07:52:07.826Z,19.04
2022-10-19T07:53:07.768Z,19.19
2022-10-19T07:54:07.783Z,19.41
2022-10-19T07:55:07.724Z,19.18
2022-10-19T07:56:07.699Z,19.43
2022-10-19T07:57:07.678Z,19.58
2022-10-19T07:58:07.652Z,19.55
2022-10-19T07:59:07.751Z,19.55
2022-10-19T08:00:07.605Z,19.68
2022-10-19T08:01:07.581Z,19.91
2022-10-19T08:02:07.618Z,20.16
2022-10-19T08:05:09.239Z,19.41
2022-10-19T08:06:07.466Z,19.71
2022-10-19T08:07:07.442Z,20.24
2022-10-19T08:08:07.458Z,20.59
2022-10-19T08:09:07.522Z,20.03
2022-10-19T08:10:07.372Z,20.17
2022-10-19T08:11:07.349Z,19.61
2022-10-19T08:12:07.327Z,19.36
2022-10-19T08:13:07.304Z,18.51
2022-10-19T08:14:07.286Z,17.87
2022-10-19T08:15:07.258Z,17.30
2022-10-19T08:16:07.231Z,17.11
2022-10-19T08:17:07.210Z,16.86
2022-10-19T08:18:07.188Z,16.71
2022-10-19T08:19:07.188Z,16.61
2022-10-19T08:20:07.141Z,16.70
2022-10-19T08:21:07.115Z,17.31
2022-10-19T08:22:07.093Z,17.58
2022-10-19T08:23:07.067Z,18.36
2022-10-19T08:24:07.072Z,18.95
2022-10-19T08:25:07.020Z,19.21
2022-10-19T08:26:06.992Z,19.62
2022-10-19T08:27:06.980Z,20.21
2022-10-19T08:28:06.952Z,20.72
2022-10-19T08:29:06.925Z,20.50
2022-10-19T08:30:06.903Z,20.48
2022-10-19T08:31:06.874Z,20.31
2022-10-19T08:32:06.851Z,20.24
2022-10-19T08:33:06.833Z,20.70
2022-10-19T08:34:06.809Z,21.31
2022-10-19T08:35:10.015Z,21.56
2022-10-19T08:36:06.765Z,21.34
2022-10-19T08:37:14.922Z,21.09
2022-10-19T08:38:06.718Z,20.72
2022-10-19T08:39:06.695Z,19.77
2022-10-19T08:40:06.689Z,19.55
2022-10-19T08:41:06.649Z,19.21
2022-10-19T08:42:06.626Z,19.00
2022-10-19T08:43:06.600Z,19.37
2022-10-19T08:44:09.330Z,19.84
2022-10-19T08:45:06.558Z,20.24
2022-10-19T08:46:06.535Z,20.17
2022-10-19T08:47:07.703Z,19.68
2022-10-19T08:48:06.491Z,19.71
2022-10-19T08:49:06.466Z,20.29
2022-10-19T08:50:06.443Z,20.77
2022-10-19T08:51:06.421Z,20.99
2022-10-19T08:52:06.401Z,21.09
2022-10-19T08:53:06.374Z,21.01
2022-10-19T08:54:06.354Z,21.22
2022-10-19T08:55:06.335Z,21.22
2022-10-19T08:56:06.336Z,21.10
2022-10-19T08:57:06.285Z,21.22
2022-10-19T08:58:06.263Z,21.25
2022-10-19T08:59:06.236Z,20.99
2022-10-19T09:00:06.222Z,20.80
2022-10-19T09:01:06.197Z,20.80
2022-10-19T09:02:06.175Z,21.19
2022-10-19T09:03:06.152Z,21.35
2022-10-19T09:04:06.129Z,21.54
2022-10-19T09:05:06.105Z,21.52
2022-10-19T09:06:06.085Z,21.75
2022-10-19T09:07:06.060Z,22.30
2022-10-19T09:08:06.036Z,22.49
2022-10-19T09:09:06.152Z,23.09
2022-10-19T09:10:05.995Z,23.38
2022-10-19T09:11:05.975Z,22.85
2022-10-19T09:12:05.975Z,22.90
2022-10-19T09:13:05.928Z,22.75
2022-10-19T09:14:06.377Z,23.01
2022-10-19T09:15:05.884Z,22.68
2022-10-19T09:16:05.874Z,21.94
2022-10-19T09:17:05.883Z,21.22
2022-10-19T09:18:05.822Z,20.77
2022-10-19T09:19:05.801Z,20.41
2022-10-19T09:20:05.781Z,19.91
2022-10-19T09:21:05.758Z,19.54
2022-10-19T09:22:05.735Z,19.18
2022-10-19T09:23:07.662Z,19.00
2022-10-19T09:24:05.691Z,18.80
2022-10-19T09:25:05.670Z,18.47
2022-10-19T09:26:05.647Z,18.27
2022-10-19T09:27:05.676Z,17.99
2022-10-19T09:28:05.635Z,17.81
2022-10-19T09:29:05.581Z,17.43
2022-10-19T09:30:05.556Z,17.28
2022-10-19T09:31:05.535Z,17.16
2022-10-19T09:32:05.509Z,16.94
2022-10-19T09:33:05.484Z,16.78
2022-10-19T09:34:05.466Z,16.48
2022-10-19T09:35:05.438Z,16.43
2022-10-19T09:36:05.413Z,16.20
2022-10-19T09:37:05.474Z,16.20
2022-10-19T09:38:05.371Z,16.24
2022-10-19T09:39:05.347Z,16.25
2022-10-19T09:40:05.326Z,16.35
2022-10-19T09:41:05.298Z,16.48
2022-10-19T09:42:05.279Z,16.67
2022-10-19T09:43:05.257Z,16.70
2022-10-19T09:44:05.260Z,16.61
2022-10-19T09:45:05.208Z,16.64
2022-10-19T09:46:13.919Z,16.64
2022-10-19T09:47:06.397Z,16.75
2022-10-19T09:48:12.183Z,17.00
2022-10-19T09:49:05.101Z,18.20
2022-10-19T09:50:05.083Z,19.43
2022-10-19T09:51:05.058Z,20.47
2022-10-19T09:52:05.035Z,21.19
2022-10-19T09:53:05.008Z,20.02
2022-10-19T09:54:04.986Z,20.77
2022-10-19T09:55:04.963Z,21.52
2022-10-19T09:56:04.941Z,22.33
2022-10-19T09:57:04.939Z,21.80
2022-10-19T09:58:04.902Z,20.99
2022-10-19T09:59:04.864Z,20.10
2022-10-19T10:00:04.870Z,19.36
2022-10-19T10:01:04.823Z,18.94
2022-10-19T10:02:04.845Z,18.48
2022-10-19T10:03:04.778Z,18.07
2022-10-19T10:04:04.753Z,17.81
2022-10-19T10:05:04.732Z,17.64
2022-10-19T10:06:04.711Z,17.48
2022-10-19T10:07:04.723Z,17.28
2022-10-19T10:08:04.661Z,17.18
2022-10-19T10:09:04.690Z,17.01
2022-10-19T10:10:04.617Z,18.05
2022-10-19T10:11:04.591Z,18.60
2022-10-19T10:12:04.580Z,19.36
2022-10-19T10:13:04.543Z,19.84
2022-10-19T10:14:07.521Z,20.35
2022-10-19T10:15:04.496Z,21.04
2022-10-19T10:16:04.492Z,21.47
2022-10-19T10:17:04.503Z,22.17
2022-10-19T10:18:04.426Z,22.86
2022-10-19T10:19:04.402Z,23.20
2022-10-19T10:20:04.380Z,22.77
2022-10-19T10:21:06.798Z,23.33
2022-10-19T10:22:04.335Z,23.13
2022-10-19T10:23:04.313Z,23.54
2022-10-19T10:24:04.290Z,23.12
2022-10-19T10:25:04.265Z,22.80
2022-10-19T10:26:04.246Z,22.80
2022-10-19T10:27:04.360Z,22.72
2022-10-19T10:28:04.199Z,22.64
2022-10-19T10:29:04.177Z,22.47
2022-10-19T10:30:04.155Z,23.13
2022-10-19T10:31:04.134Z,23.50
2022-10-19T10:32:04.133Z,23.85
2022-10-19T10:33:13.460Z,24.50
2022-10-19T10:34:12.339Z,24.78
2022-10-19T10:35:04.048Z,25.20
2022-10-19T10:36:04.024Z,25.46
2022-10-19T10:37:04.003Z,25.76
2022-10-19T10:38:03.981Z,25.43
2022-10-19T10:39:03.967Z,25.61
2022-10-19T10:40:05.044Z,24.40
2022-10-19T10:41:03.916Z,23.73
2022-10-19T10:42:03.897Z,23.19
2022-10-19T10:43:03.873Z,22.37
2022-10-19T10:44:04.914Z,21.58
2022-10-19T10:45:03.833Z,21.13
2022-10-19T10:46:03.813Z,20.67
2022-10-19T10:47:03.792Z,20.11
2022-10-19T10:48:03.896Z,19.66
2022-10-19T10:49:03.747Z,19.19
2022-10-19T10:50:03.725Z,18.90
2022-10-19T10:51:03.705Z,18.52
2022-10-19T10:52:03.683Z,18.21
2022-10-19T10:53:03.660Z,17.99
2022-10-19T10:54:03.632Z,17.93
2022-10-19T10:55:03.616Z,17.55
2022-10-19T10:56:03.591Z,17.26
2022-10-19T10:57:05.589Z,17.06
2022-10-19T10:58:03.542Z,16.91
2022-10-19T10:59:03.522Z,16.82
2022-10-19T11:00:03.500Z,16.88
2022-10-19T11:01:06.568Z,18.15
2022-10-19T11:02:03.513Z,19.23
2022-10-19T11:03:03.430Z,20.14
2022-10-19T11:04:03.431Z,20.80
2022-10-19T11:05:03.381Z,20.82
2022-10-19T11:06:03.358Z,21.04
2022-10-19T11:07:03.339Z,21.17
2022-10-19T11:08:03.311Z,20.76
2022-10-19T11:09:03.342Z,21.24
2022-10-19T11:10:03.265Z,21.82
2022-10-19T11:11:03.243Z,22.68
2022-10-19T11:12:03.223Z,23.17
2022-10-19T11:13:03.192Z,23.75
2022-10-19T11:14:03.172Z,24.31
2022-10-19T11:15:03.148Z,24.06
2022-10-19T11:16:03.131Z,24.55
2022-10-19T11:17:03.183Z,24.84
2022-10-19T11:18:03.080Z,24.96
2022-10-19T11:19:03.094Z,25.36
2022-10-19T11:20:03.060Z,25.57
2022-10-19T11:21:03.013Z,25.57
2022-10-19T11:22:02.989Z,25.70
2022-10-19T11:23:02.969Z,24.90
2022-10-19T11:24:02.954Z,24.73
2022-10-19T11:25:02.931Z,24.68
2022-10-19T11:26:02.921Z,23.78
2022-10-19T11:27:02.947Z,22.62
2022-10-19T11:28:02.858Z,21.50
2022-10-19T11:29:02.834Z,20.48
2022-10-19T11:30:02.817Z,19.95
2022-10-19T11:31:02.792Z,19.32
2022-10-19T11:32:02.775Z,18.99
2022-10-19T11:33:02.746Z,18.63
2022-10-19T11:34:02.768Z,18.26
2022-10-19T11:35:02.703Z,17.84
2022-10-19T11:36:02.701Z,17.58
2022-10-19T11:37:02.731Z,17.28
2022-10-19T11:38:20.686Z,17.19
2022-10-19T11:39:02.613Z,17.14
2022-10-19T11:40:02.588Z,16.97
2022-10-19T11:41:19.175Z,16.91
2022-10-19T11:42:02.542Z,16.93
2022-10-19T11:43:02.517Z,16.86
2022-10-19T11:44:02.495Z,16.86
2022-10-19T11:45:02.470Z,16.82
2022-10-19T11:46:02.447Z,18.08
2022-10-19T11:47:02.558Z,18.95
2022-10-19T11:48:02.406Z,19.92
2022-10-19T11:49:02.378Z,20.62
2022-10-19T11:50:02.441Z,20.47
2022-10-19T11:51:16.916Z,20.76
2022-10-19T11:52:02.374Z,21.09
2022-10-19T11:53:02.353Z,20.98
2022-10-19T11:54:02.259Z,21.09
2022-10-19T11:55:02.236Z,21.06
2022-10-19T11:56:02.212Z,21.61
2022-10-19T11:57:04.806Z,22.21
2022-10-19T11:58:02.161Z,22.72
2022-10-19T11:59:02.157Z,23.10
2022-10-19T12:00:13.653Z,23.01
2022-10-19T12:01:02.096Z,21.94
2022-10-19T12:02:02.125Z,21.42
2022-10-19T12:03:03.851Z,21.92
2022-10-19T12:04:02.022Z,22.18
2022-10-19T12:05:02.003Z,22.28
2022-10-19T12:06:01.973Z,22.07
2022-10-19T12:07:01.956Z,22.60
2022-10-19T12:08:01.959Z,23.31
2022-10-19T12:09:01.974Z,23.78
2022-10-19T12:10:01.886Z,23.80
2022-10-19T12:11:01.862Z,24.20
2022-10-19T12:12:01.838Z,23.69
2022-10-19T12:13:01.814Z,22.70
2022-10-19T12:14:01.808Z,22.51
2022-10-19T12:15:01.769Z,21.40
2022-10-19T12:16:01.749Z,20.91
2022-10-19T12:17:01.875Z,20.35
2022-10-19T12:18:01.698Z,19.92
2022-10-19T12:19:01.676Z,19.56
2022-10-19T12:20:01.656Z,19.22
2022-10-19T12:21:01.628Z,18.81
2022-10-19T12:22:01.607Z,18.51
2022-10-19T12:23:01.591Z,18.26
2022-10-19T12:24:01.598Z,18.05
2022-10-19T12:25:01.538Z,17.96
2022-10-19T12:26:01.515Z,17.82
2022-10-19T12:27:01.492Z,17.79
2022-10-19T12:28:01.468Z,17.48
2022-10-19T12:29:01.445Z,17.40
2022-10-19T12:30:01.427Z,17.72
2022-10-19T12:31:01.397Z,18.60
2022-10-19T12:32:01.374Z,19.37
2022-10-19T12:33:01.349Z,20.02
2022-10-19T12:34:01.326Z,20.98
2022-10-19T12:35:01.302Z,21.62
2022-10-19T12:36:01.281Z,22.17
2022-10-19T12:37:01.255Z,22.61
2022-10-19T12:38:01.231Z,23.04
2022-10-19T12:39:01.211Z,23.47
2022-10-19T12:40:01.227Z,23.78
2022-10-19T12:41:01.162Z,23.78
2022-10-19T12:42:01.139Z,23.94
2022-10-19T12:43:01.116Z,24.08
2022-10-19T12:44:01.093Z,24.10
2022-10-19T12:45:01.068Z,24.16
2022-10-19T12:46:01.046Z,24.08
2022-10-19T12:47:01.243Z,23.70
2022-10-19T12:48:01.001Z,23.32
2022-10-19T12:49:00.974Z,22.70
2022-10-19T12:50:00.950Z,22.80
2022-10-19T12:51:00.928Z,23.15
2022-10-19T12:52:00.907Z,23.38
2022-10-19T12:53:00.881Z,22.82
2022-10-19T12:54:00.858Z,22.37
2022-10-19T12:55:00.836Z,22.52